createdAt,value
2019-01-14T01:47:50.484Z,2.27
2019-01-14T01:50:30.992Z,2.20
2019-01-14T01:53:11.973Z,1.90
2019-01-14T01:55:51.239Z,1.90
2019-01-14T01:58:39.745Z,2.33
2019-01-14T02:01:28.000Z,2.00
2019-01-14T02:04:09.152Z,2.50
2019-01-14T02:06:50.453Z,2.60
2019-01-14T02:09:31.756Z,2.20
2019-01-14T02:12:12.268Z,2.17
2019-01-14T02:14:53.484Z,2.30
2019-01-14T02:17:34.596Z,2.73
2019-01-14T02:20:15.100Z,2.40
2019-01-14T02:22:56.277Z,2.17
2019-01-14T02:25:35.600Z,2.97
2019-01-14T02:28:04.709Z,2.85
2019-01-14T02:30:52.856Z,2.23
2019-01-14T02:33:41.108Z,2.17
2019-01-14T02:36:29.257Z,2.40
2019-01-14T02:39:16.984Z,2.23
2019-01-14T02:42:05.138Z,2.57
2019-01-14T02:44:34.197Z,2.60
2019-01-14T02:47:22.361Z,2.65
2019-01-14T02:50:10.930Z,2.43
2019-01-14T02:52:59.073Z,2.43
2019-01-14T02:55:47.293Z,2.10
2019-01-14T02:58:35.457Z,2.00
2019-01-14T03:01:23.630Z,2.83
2019-01-14T03:04:04.660Z,2.80
2019-01-14T03:06:45.925Z,2.30
2019-01-14T03:09:27.229Z,2.40
2019-01-14T03:12:08.414Z,2.87
2019-01-14T03:17:51.530Z,3.17
2019-01-14T03:20:32.644Z,2.60
2019-01-14T03:23:14.050Z,3.37
2019-01-14T03:25:58.354Z,2.83
2019-01-14T03:28:37.641Z,3.20
2019-01-14T03:45:58.029Z,3.03
2019-01-14T03:48:45.673Z,3.53
2019-01-14T03:51:33.278Z,3.50
2019-01-14T03:54:20.902Z,3.80
2019-01-14T03:57:09.242Z,3.20
2019-01-14T03:59:37.737Z,3.30
2019-01-14T04:02:25.358Z,3.80
2019-01-14T04:16:44.207Z,4.63
2019-01-14T04:22:38.614Z,3.70
2019-01-14T04:25:26.235Z,4.40
2019-01-14T04:28:13.834Z,3.57
2019-01-14T04:31:01.443Z,4.00
2019-01-14T04:33:49.058Z,4.30
2019-01-14T04:36:36.663Z,3.70
2019-01-14T04:39:24.977Z,3.87
2019-01-14T04:42:12.745Z,4.20
2019-01-14T04:45:00.354Z,3.80
2019-01-14T04:47:48.031Z,5.63
2019-01-14T04:50:35.634Z,3.87
2019-01-14T04:56:30.054Z,3.63
2019-01-14T04:58:58.634Z,4.30
2019-01-14T05:01:27.118Z,3.67
2019-01-14T05:03:55.570Z,3.93
2019-01-14T05:06:24.095Z,4.40
2019-01-14T05:08:52.735Z,3.77
2019-01-14T05:11:21.242Z,4.87
2019-01-14T05:13:50.543Z,5.20
2019-01-14T05:16:19.323Z,3.63
2019-01-14T05:18:47.752Z,4.90
2019-01-14T05:21:16.335Z,3.73
2019-01-14T05:23:44.963Z,3.47
2019-01-14T05:26:13.443Z,4.20
2019-01-14T05:28:41.979Z,4.37
2019-01-14T05:31:10.523Z,4.70
2019-01-14T05:33:39.199Z,4.43
2019-01-14T05:36:07.759Z,4.37
2019-01-14T05:38:36.176Z,4.07
2019-01-14T05:41:04.763Z,4.37
2019-01-14T05:43:33.333Z,4.70
2019-01-14T05:46:02.030Z,4.30
2019-01-14T05:48:30.639Z,4.27
2019-01-14T05:50:59.087Z,4.63
2019-01-14T05:53:27.573Z,4.10
2019-01-14T05:55:56.011Z,4.50
2019-01-14T05:58:24.529Z,4.30
2019-01-14T06:00:53.028Z,3.77
2019-01-14T06:03:21.795Z,4.83
2019-01-14T06:05:51.233Z,4.77
2019-01-14T06:08:20.502Z,3.97
2019-01-14T06:10:49.148Z,4.13
2019-01-14T06:13:17.603Z,3.90
2019-01-14T06:15:46.292Z,4.40
2019-01-14T06:18:14.732Z,3.67
2019-01-14T06:20:43.357Z,3.47
2019-01-14T06:23:12.016Z,4.27
2019-01-14T06:25:40.712Z,3.13
2019-01-14T06:28:09.485Z,3.60
2019-01-14T06:30:38.802Z,3.70
2019-01-14T06:33:07.224Z,3.77
2019-01-14T06:35:35.812Z,4.60
2019-01-14T06:38:04.344Z,4.07
2019-01-14T06:40:33.079Z,4.57
2019-01-14T06:43:01.716Z,4.47
2019-01-14T06:45:30.328Z,4.30
2019-01-14T06:47:58.852Z,3.97
2019-01-14T06:50:27.393Z,4.50
2019-01-14T06:52:55.904Z,4.23
2019-01-14T06:55:24.434Z,4.13
2019-01-14T06:57:53.088Z,4.47
2019-01-14T07:00:26.097Z,4.27
2019-01-14T07:02:54.696Z,4.73
2019-01-14T07:05:23.213Z,3.63
2019-01-14T07:07:59.236Z,4.00
2019-01-14T07:10:24.466Z,3.83
2019-01-14T07:12:53.156Z,4.00
2019-01-14T07:15:21.753Z,3.23
2019-01-14T07:17:51.912Z,3.70
2019-01-14T07:20:20.608Z,4.10
2019-01-14T07:22:49.149Z,3.53
2019-01-14T07:25:18.316Z,3.57
2019-01-14T07:27:46.856Z,3.50
2019-01-14T07:30:16.265Z,4.00
2019-01-14T07:32:44.765Z,3.27
2019-01-14T07:35:14.992Z,3.27
2019-01-14T07:37:43.557Z,3.43
2019-01-14T07:40:12.937Z,3.77
2019-01-14T07:42:41.454Z,3.77
2019-01-14T07:45:11.969Z,3.20
2019-01-14T07:47:40.480Z,3.47
2019-01-14T07:50:09.647Z,3.03
2019-01-14T07:52:38.145Z,2.30
2019-01-14T07:55:06.697Z,2.13
2019-01-14T07:57:35.190Z,2.00
2019-01-14T08:00:06.377Z,1.97
2019-01-14T08:02:34.881Z,2.60
2019-01-14T08:05:03.469Z,2.80
2019-01-14T08:07:31.977Z,2.87
2019-01-14T08:10:00.753Z,2.70
2019-01-14T08:12:29.238Z,2.97
2019-01-14T08:14:57.830Z,3.00
2019-01-14T08:17:26.277Z,2.63
2019-01-14T08:19:54.689Z,2.57
2019-01-14T08:22:23.127Z,2.93
2019-01-14T08:24:53.089Z,2.50
2019-01-14T08:27:21.501Z,2.60
2019-01-14T08:29:50.050Z,2.50
2019-01-14T08:32:18.613Z,2.47
2019-01-14T08:34:47.109Z,2.10
2019-01-14T08:37:15.518Z,2.53
2019-01-14T08:39:43.946Z,2.70
2019-01-14T08:42:12.826Z,2.60
2019-01-14T08:44:43.279Z,2.40
2019-01-14T08:47:11.756Z,2.37
2019-01-14T08:49:40.214Z,2.07
2019-01-14T08:52:08.730Z,2.40
2019-01-14T08:54:37.173Z,2.13
2019-01-14T08:57:05.650Z,1.63
2019-01-14T08:59:34.126Z,2.20
2019-01-14T09:02:02.610Z,2.03
2019-01-14T09:04:32.495Z,2.40
2019-01-14T09:07:01.341Z,2.03
2019-01-14T09:09:29.892Z,2.10
2019-01-14T09:11:58.378Z,1.83
2019-01-14T09:14:26.854Z,1.70
2019-01-14T09:16:55.362Z,1.23
2019-01-14T09:19:23.771Z,1.93
2019-01-14T09:21:52.267Z,1.77
2019-01-14T09:24:20.679Z,1.83
2019-01-14T09:26:49.143Z,2.37
2019-01-14T09:29:17.767Z,1.63
2019-01-14T09:31:46.439Z,2.00
2019-01-14T09:34:15.079Z,2.10
2019-01-14T09:36:43.582Z,1.90
2019-01-14T09:39:12.747Z,1.70
2019-01-14T09:41:41.314Z,2.20
2019-01-14T09:44:09.815Z,1.70
2019-01-14T09:46:38.306Z,1.90
2019-01-14T09:49:06.856Z,1.73
2019-01-14T09:51:35.247Z,1.80
2019-01-14T09:54:05.131Z,1.70
2019-01-14T09:56:33.707Z,1.90
2019-01-14T09:59:02.215Z,1.67
2019-01-14T10:01:30.719Z,1.83
2019-01-14T10:03:59.223Z,2.07
2019-01-14T10:06:27.827Z,2.13
2019-01-14T10:08:56.304Z,2.30
2019-01-14T10:11:24.799Z,1.93
2019-01-14T10:13:53.356Z,2.00
2019-01-14T10:16:21.835Z,1.63
2019-01-14T10:18:50.467Z,2.23
2019-01-14T10:21:18.897Z,2.40
2019-01-14T10:23:47.400Z,1.80
2019-01-14T10:26:16.257Z,1.63
2019-01-14T10:28:44.888Z,2.80
2019-01-14T10:31:13.407Z,2.43
2019-01-14T10:33:41.901Z,1.93
2019-01-14T10:36:10.404Z,2.90
2019-01-14T10:38:38.831Z,2.03
2019-01-14T10:41:07.367Z,2.10
2019-01-14T10:43:35.834Z,3.10
2019-01-14T10:46:04.476Z,2.23
2019-01-14T10:48:33.052Z,2.50
2019-01-14T10:51:01.636Z,2.07
2019-01-14T10:53:30.624Z,2.20
2019-01-14T10:55:59.152Z,2.30
2019-01-14T10:58:27.672Z,2.63
2019-01-14T11:00:56.163Z,2.67
2019-01-14T11:03:24.648Z,2.10
2019-01-14T11:05:53.144Z,1.80
2019-01-14T11:08:21.701Z,1.80
2019-01-14T11:10:50.200Z,1.97
2019-01-14T11:13:18.764Z,1.80
2019-01-14T11:15:47.299Z,1.70
2019-01-14T11:18:15.841Z,2.07
2019-01-14T11:20:44.328Z,2.40
2019-01-14T11:23:12.884Z,4.23
2019-01-14T11:25:41.377Z,2.00
2019-01-14T11:28:09.942Z,2.00
2019-01-14T11:30:38.471Z,2.00
2019-01-14T11:33:07.016Z,2.10
2019-01-14T11:35:36.617Z,2.03
2019-01-14T11:38:05.121Z,2.50
2019-01-14T11:40:35.529Z,3.93
2019-01-14T11:43:04.133Z,1.67
2019-01-14T11:45:32.621Z,2.27
2019-01-14T11:48:01.100Z,2.37
2019-01-14T11:50:29.519Z,2.60
2019-01-14T11:52:57.945Z,2.10
2019-01-14T11:55:26.477Z,2.00
2019-01-14T11:57:55.113Z,2.20
2019-01-14T12:00:24.349Z,2.00
2019-01-14T12:02:53.965Z,2.37
2019-01-14T12:05:22.525Z,1.80
2019-01-14T12:07:51.357Z,1.90
2019-01-14T12:10:19.882Z,1.87
2019-01-14T12:12:48.521Z,1.70
2019-01-14T12:15:18.465Z,2.00
2019-01-14T12:17:46.945Z,2.00
2019-01-14T12:20:15.634Z,1.43
2019-01-14T12:22:45.174Z,1.70
2019-01-14T12:25:13.715Z,2.10
2019-01-14T12:27:42.290Z,2.27
2019-01-14T12:30:13.366Z,1.73
2019-01-14T12:32:41.858Z,1.90
2019-01-14T12:35:10.334Z,2.43
2019-01-14T12:37:38.858Z,1.60
2019-01-14T12:40:08.738Z,2.20
2019-01-14T12:42:37.514Z,2.47
2019-01-14T12:45:06.510Z,1.97
2019-01-14T12:47:34.922Z,1.97
2019-01-14T12:50:03.659Z,2.57
2019-01-14T12:52:32.514Z,3.80
2019-01-14T12:55:03.366Z,2.17
2019-01-14T12:57:31.842Z,1.90
2019-01-14T13:00:00.347Z,1.63
2019-01-14T13:02:28.740Z,2.00
2019-01-14T13:04:57.238Z,2.00
2019-01-14T13:07:25.746Z,1.73
2019-01-14T13:09:54.410Z,1.40
2019-01-14T13:12:22.899Z,2.47
2019-01-14T13:14:51.351Z,2.63
2019-01-14T13:17:19.831Z,2.17
2019-01-14T13:19:48.375Z,2.10
2019-01-14T13:22:17.279Z,2.00
2019-01-14T13:24:45.695Z,1.90
2019-01-14T13:27:14.251Z,1.97
2019-01-14T13:29:42.823Z,1.87
2019-01-14T13:32:11.255Z,3.03
2019-01-14T13:34:39.791Z,2.10
2019-01-14T13:37:08.391Z,2.40
2019-01-14T13:39:36.941Z,2.40
2019-01-14T13:42:05.588Z,2.37
2019-01-14T13:44:34.415Z,2.30
2019-01-14T13:47:03.256Z,2.77
2019-01-14T13:49:31.708Z,2.80
2019-01-14T13:52:00.263Z,2.87
2019-01-14T13:54:28.767Z,2.40
2019-01-14T13:56:57.352Z,2.90
2019-01-14T13:59:25.967Z,2.90
2019-01-14T14:01:54.463Z,2.53
2019-01-14T14:04:23.088Z,2.80
2019-01-14T14:06:51.683Z,2.93
2019-01-14T14:09:20.155Z,2.57
2019-01-14T14:11:48.945Z,2.60
2019-01-14T14:14:17.891Z,2.83
2019-01-14T14:16:46.400Z,2.30
2019-01-14T14:19:15.107Z,2.50
2019-01-14T14:21:43.569Z,2.17
2019-01-14T14:24:12.137Z,2.70
2019-01-14T14:26:40.547Z,2.33
2019-01-14T14:29:09.415Z,2.90
2019-01-14T14:31:38.030Z,3.10
2019-01-14T14:34:06.543Z,3.60
2019-01-14T14:36:35.092Z,2.77
2019-01-14T14:39:05.052Z,3.13
2019-01-14T14:41:33.536Z,3.20
2019-01-14T14:44:02.036Z,2.63
2019-01-14T14:46:30.548Z,2.77
2019-01-14T14:48:59.047Z,2.63
2019-01-14T14:51:27.516Z,3.20
2019-01-14T14:53:55.964Z,2.47
2019-01-14T14:56:24.476Z,2.60
2019-01-14T14:58:53.724Z,3.90
2019-01-14T15:01:22.700Z,3.40
2019-01-14T15:03:51.324Z,3.20
2019-01-14T15:06:19.799Z,2.87
2019-01-14T15:08:48.301Z,2.77
2019-01-14T15:11:16.721Z,2.70
2019-01-14T15:13:45.231Z,3.47
2019-01-14T15:16:13.816Z,3.50
2019-01-14T15:18:42.325Z,2.80
2019-01-14T15:21:10.709Z,3.10
2019-01-14T15:23:39.176Z,2.93
2019-01-14T15:26:07.745Z,2.90
2019-01-14T15:28:36.280Z,3.13
2019-01-14T15:31:05.105Z,4.00
2019-01-14T15:33:33.616Z,2.70
2019-01-14T15:36:02.124Z,4.03
2019-01-14T15:38:30.612Z,3.27
2019-01-14T15:40:59.172Z,3.23
2019-01-14T15:43:27.789Z,3.67
2019-01-14T15:45:56.630Z,3.97
2019-01-14T15:48:25.097Z,4.43
2019-01-14T15:50:53.521Z,3.63
2019-01-14T15:53:21.933Z,3.70
2019-01-14T15:55:52.701Z,3.40
2019-01-14T15:58:21.204Z,3.30
2019-01-14T16:00:50.181Z,3.70
2019-01-14T16:03:18.690Z,3.33
2019-01-14T16:05:47.174Z,3.73
2019-01-14T16:08:15.681Z,3.97
2019-01-14T16:10:44.267Z,3.80
2019-01-14T16:13:12.761Z,3.67
2019-01-14T16:15:41.232Z,3.67
2019-01-14T16:18:09.820Z,3.83
2019-01-14T16:20:38.346Z,4.60
2019-01-14T16:23:06.901Z,3.50
2019-01-14T16:25:35.797Z,4.10
2019-01-14T16:28:04.437Z,4.00
2019-01-14T16:30:32.977Z,4.40
2019-01-14T16:33:01.471Z,3.87
2019-01-14T16:35:29.966Z,3.63
2019-01-14T16:37:58.367Z,4.43
2019-01-14T16:40:26.850Z,4.47
2019-01-14T16:45:41.206Z,4.00
2019-01-14T16:48:10.074Z,4.10
2019-01-14T16:50:38.585Z,3.93
2019-01-14T16:53:07.077Z,4.33
2019-01-14T16:55:47.046Z,4.67
2019-01-14T16:58:15.555Z,4.20
2019-01-14T17:00:44.031Z,6.33
2019-01-14T17:03:12.558Z,4.87
2019-01-14T17:05:41.068Z,3.77
2019-01-14T17:08:09.558Z,3.80
2019-01-14T17:10:38.054Z,4.00
2019-01-14T17:13:06.534Z,5.03
2019-01-14T17:15:35.026Z,4.73
2019-01-14T17:18:03.810Z,3.87
2019-01-14T17:20:32.378Z,3.53
2019-01-14T17:23:00.891Z,3.97
2019-01-14T17:25:29.427Z,4.33
2019-01-14T17:27:57.907Z,4.03
2019-01-14T17:30:26.342Z,4.37
2019-01-14T17:32:55.262Z,4.40
2019-01-14T17:35:23.826Z,4.87
2019-01-14T17:37:52.399Z,3.77
2019-01-14T17:40:20.894Z,3.80
2019-01-14T17:42:49.383Z,4.23
2019-01-14T17:45:17.876Z,4.20
2019-01-14T17:47:46.351Z,4.10
2019-01-14T17:50:18.518Z,3.83
2019-01-14T17:52:47.091Z,3.53
2019-01-14T17:55:15.618Z,3.87
2019-01-14T17:57:44.171Z,3.77
2019-01-14T18:00:19.851Z,3.13
2019-01-14T18:02:48.330Z,3.20
2019-01-14T18:08:29.711Z,4.30
2019-01-14T18:11:17.359Z,4.23
2019-01-14T18:14:05.066Z,3.37
2019-01-14T18:16:52.771Z,3.63
2019-01-14T18:52:35.995Z,3.63
2019-01-14T18:55:16.219Z,3.77
2019-01-14T18:57:56.719Z,3.70
2019-01-14T19:00:35.199Z,3.33
2019-01-14T19:35:48.992Z,2.90
2019-01-14T19:38:36.988Z,3.87
2019-01-14T19:41:24.652Z,3.63
2019-01-14T19:44:12.337Z,3.73
2019-01-14T19:46:59.977Z,3.30
2019-01-14T19:49:47.692Z,4.03
2019-01-14T19:52:35.376Z,2.63
2019-01-14T19:55:22.981Z,3.50
2019-01-14T19:58:12.534Z,3.40
2019-01-14T20:01:00.305Z,3.13
2019-01-14T20:03:48.012Z,3.30
2019-01-14T20:06:35.725Z,3.80
2019-01-14T20:09:23.589Z,3.47
2019-01-14T20:12:11.241Z,3.00
2019-01-14T20:14:58.889Z,3.07
2019-01-14T20:17:46.533Z,3.80
2019-01-14T20:20:34.178Z,3.47
